createdAt,value
2023-01-12T00:00:10.444Z,172.20
2023-01-12T00:02:36.927Z,166.30
2023-01-12T00:05:03.633Z,160.20
2023-01-12T00:07:30.341Z,141.40
2023-01-12T00:09:56.757Z,151.70
2023-01-12T00:12:23.261Z,135.80
2023-01-12T00:14:49.797Z,132.10
2023-01-12T00:17:16.451Z,135.80
2023-01-12T00:19:42.921Z,131.30
2023-01-12T00:22:09.551Z,119.20
2023-01-12T00:24:38.853Z,116.30
2023-01-12T00:27:07.758Z,125.50
2023-01-12T00:29:35.661Z,120.90
2023-01-12T00:32:02.991Z,130.00
2023-01-12T00:34:30.118Z,137.60
2023-01-12T00:36:57.779Z,122.90
2023-01-12T00:39:24.258Z,119.80
2023-01-12T00:41:50.761Z,124.10
2023-01-12T00:44:17.513Z,126.80
2023-01-12T00:46:44.147Z,115.10
2023-01-12T00:49:10.600Z,115.80
2023-01-12T00:51:37.197Z,113.60
2023-01-12T00:54:03.987Z,112.00
2023-01-12T00:56:32.063Z,106.20
2023-01-12T00:58:58.710Z,102.30
2023-01-12T01:01:25.323Z,101.80
2023-01-12T01:03:51.999Z,103.50
2023-01-12T01:06:18.557Z,92.60
2023-01-12T01:08:45.038Z,99.80
2023-01-12T01:11:13.151Z,92.90
2023-01-12T01:13:40.740Z,95.80
2023-01-12T01:16:08.629Z,117.20
2023-01-12T01:18:35.771Z,127.70
2023-01-12T01:21:03.024Z,127.10
2023-01-12T01:23:33.179Z,133.90
2023-01-12T01:26:11.115Z,129.60
2023-01-12T01:28:37.945Z,131.90
2023-01-12T01:31:10.315Z,143.70
2023-01-12T01:33:37.649Z,130.90
2023-01-12T01:36:04.696Z,129.20
2023-01-12T01:38:31.660Z,147.20
2023-01-12T01:40:58.209Z,139.80
2023-01-12T01:43:26.636Z,147.50
2023-01-12T01:46:05.786Z,145.30
2023-01-12T01:48:36.487Z,145.30
2023-01-12T01:51:08.855Z,148.80
2023-01-12T01:53:37.805Z,155.50
2023-01-12T01:56:14.736Z,146.20
2023-01-12T01:58:44.766Z,144.90
2023-01-12T02:01:11.323Z,143.80
2023-01-12T02:03:38.462Z,139.80
2023-01-12T02:06:07.659Z,142.20
2023-01-12T02:08:45.610Z,138.80
2023-01-12T02:11:13.866Z,144.80
2023-01-12T02:13:40.394Z,136.80
2023-01-12T02:16:15.811Z,141.30
2023-01-12T02:18:46.166Z,138.20
2023-01-12T02:21:31.105Z,126.90
2023-01-12T02:24:31.372Z,124.60
2023-01-12T02:27:49.116Z,105.40
2023-01-12T02:30:37.585Z,114.90
2023-01-12T02:33:29.919Z,103.80
2023-01-12T02:36:10.819Z,94.10
2023-01-12T02:38:47.774Z,101.40
2023-01-12T02:41:26.531Z,94.40
2023-01-12T02:43:53.884Z,89.20
2023-01-12T02:46:27.921Z,95.60
2023-01-12T02:48:56.891Z,82.90
2023-01-12T02:51:42.566Z,92.10
2023-01-12T02:54:13.469Z,87.80
2023-01-12T02:56:45.337Z,89.70
2023-01-12T02:59:22.845Z,90.90
2023-01-12T03:01:51.559Z,95.80
2023-01-12T03:04:23.479Z,103.20
2023-01-12T03:06:56.026Z,89.50
2023-01-12T03:09:27.808Z,91.40
2023-01-12T03:12:01.292Z,99.90
2023-01-12T03:14:29.834Z,103.80
2023-01-12T03:16:56.925Z,95.60
2023-01-12T03:19:32.070Z,93.10
2023-01-12T03:22:03.461Z,88.20
2023-01-12T03:24:39.596Z,94.10
2023-01-12T03:27:12.979Z,81.10
2023-01-12T03:30:05.940Z,82.00
2023-01-12T03:32:33.136Z,88.10
2023-01-12T03:35:00.199Z,82.70
2023-01-12T03:38:03.101Z,87.10
2023-01-12T03:40:39.152Z,82.10
2023-01-12T03:43:15.041Z,80.10
2023-01-12T03:45:48.623Z,91.60
2023-01-12T03:48:25.078Z,89.40
2023-01-12T03:51:03.809Z,85.10
2023-01-12T03:53:32.515Z,88.10
2023-01-12T03:56:04.864Z,84.20
2023-01-12T03:58:32.324Z,83.50
2023-01-12T04:00:58.947Z,83.30
2023-01-12T04:03:26.009Z,85.40
2023-01-12T04:05:52.539Z,84.60
2023-01-12T04:08:19.651Z,89.10
2023-01-12T04:10:46.190Z,83.20
2023-01-12T04:13:12.728Z,88.00
2023-01-12T04:15:39.493Z,97.50
2023-01-12T04:18:05.951Z,90.80
2023-01-12T04:20:32.395Z,87.40
2023-01-12T04:22:58.899Z,98.00
2023-01-12T04:25:25.538Z,92.10
2023-01-12T04:27:57.598Z,91.70
2023-01-12T04:30:24.118Z,89.80
2023-01-12T04:32:51.317Z,89.50
2023-01-12T04:35:18.541Z,94.00
2023-01-12T04:37:45.484Z,89.70
2023-01-12T04:40:14.702Z,75.70
2023-01-12T04:42:55.638Z,72.00
2023-01-12T04:45:22.911Z,71.80
2023-01-12T04:47:49.414Z,64.20
2023-01-12T04:50:15.950Z,66.30
2023-01-12T04:53:26.466Z,64.70
2023-01-12T04:56:04.289Z,62.30
2023-01-12T04:58:30.839Z,67.60
2023-01-12T05:00:57.646Z,65.30
2023-01-12T05:03:24.432Z,62.10
2023-01-12T05:05:50.896Z,59.10
2023-01-12T05:08:17.452Z,55.80
2023-01-12T05:10:44.212Z,63.30
2023-01-12T05:13:10.967Z,69.70
2023-01-12T05:15:37.497Z,69.30
2023-01-12T05:18:04.373Z,73.80
2023-01-12T05:20:30.993Z,79.80
2023-01-12T05:22:57.533Z,76.00
2023-01-12T05:25:24.279Z,84.80
2023-01-12T05:27:57.229Z,79.20
2023-01-12T05:30:25.058Z,83.00
2023-01-12T05:32:51.458Z,104.90
2023-01-12T05:35:18.137Z,103.90
2023-01-12T05:37:45.505Z,107.20
2023-01-12T05:40:12.533Z,98.50
2023-01-12T05:42:39.591Z,94.20
2023-01-12T05:45:06.959Z,96.10
2023-01-12T05:47:33.982Z,92.10
2023-01-12T05:50:00.449Z,83.60
2023-01-12T05:52:26.945Z,86.50
2023-01-12T05:54:53.441Z,92.00
2023-01-12T05:57:19.987Z,85.20
2023-01-12T05:59:46.483Z,80.30
2023-01-12T06:02:13.359Z,115.40
2023-01-12T06:04:40.055Z,117.20
2023-01-12T06:07:06.717Z,101.70
2023-01-12T06:09:33.138Z,78.00
2023-01-12T06:11:59.571Z,68.80
2023-01-12T06:14:26.082Z,83.10
2023-01-12T06:16:52.519Z,83.30
2023-01-12T06:19:18.920Z,120.90
2023-01-12T06:21:45.389Z,90.50
2023-01-12T06:24:11.945Z,71.70
2023-01-12T06:26:38.593Z,56.70
2023-01-12T06:29:05.482Z,54.20
2023-01-12T06:31:32.637Z,64.70
2023-01-12T06:33:59.200Z,55.10
2023-01-12T06:36:25.890Z,58.40
2023-01-12T06:38:52.430Z,68.20
2023-01-12T06:41:18.834Z,182.40
2023-01-12T06:43:45.324Z,163.20
2023-01-12T06:46:11.867Z,153.40
2023-01-12T06:48:38.912Z,140.00
2023-01-12T06:51:06.200Z,105.50
2023-01-12T06:53:32.698Z,114.90
2023-01-12T06:55:59.151Z,122.70
2023-01-12T06:58:25.708Z,93.80
2023-01-12T07:00:52.221Z,131.90
2023-01-12T07:03:20.416Z,132.70
2023-01-12T07:05:47.149Z,135.90
2023-01-12T07:08:13.683Z,161.90
2023-01-12T07:10:40.288Z,154.00
2023-01-12T07:13:06.770Z,113.30
2023-01-12T07:15:33.304Z,111.30
2023-01-12T07:17:59.780Z,110.10
2023-01-12T07:20:27.323Z,94.10
2023-01-12T07:22:54.970Z,86.10
2023-01-12T07:25:21.672Z,85.90
2023-01-12T07:27:53.539Z,77.80
2023-01-12T07:30:21.821Z,80.50
2023-01-12T07:32:50.173Z,79.40
2023-01-12T07:35:18.020Z,81.90
2023-01-12T07:37:52.029Z,73.20
2023-01-12T07:40:18.603Z,83.90
2023-01-12T07:42:45.066Z,86.60
2023-01-12T07:45:12.083Z,87.50
2023-01-12T07:47:39.753Z,95.80
2023-01-12T07:50:08.032Z,115.30
2023-01-12T07:52:34.470Z,116.00
2023-01-12T07:55:00.935Z,104.90
2023-01-12T07:57:27.444Z,102.90
2023-01-12T07:59:53.877Z,94.70
2023-01-12T08:02:20.419Z,88.40
2023-01-12T08:04:47.200Z,95.10
2023-01-12T08:07:14.117Z,94.40
2023-01-12T08:09:41.018Z,99.20
2023-01-12T08:12:07.722Z,93.20
2023-01-12T08:14:38.975Z,104.40
2023-01-12T08:17:15.859Z,115.60
2023-01-12T08:19:48.331Z,103.30
2023-01-12T08:22:20.922Z,115.00
2023-01-12T08:25:12.676Z,110.10
2023-01-12T08:27:43.899Z,113.90
2023-01-12T08:30:15.358Z,115.60
2023-01-12T08:35:09.226Z,101.40
2023-01-12T08:37:35.689Z,90.60
2023-01-12T08:40:05.416Z,81.70
2023-01-12T08:42:32.106Z,78.60
2023-01-12T08:44:58.702Z,81.20
2023-01-12T08:47:27.438Z,90.70
2023-01-12T08:49:54.694Z,97.80
2023-01-12T08:52:21.545Z,87.00
2023-01-12T08:54:49.063Z,96.70
2023-01-12T08:57:15.734Z,98.60
2023-01-12T08:59:42.676Z,92.10
2023-01-12T09:02:11.962Z,97.20
2023-01-12T09:04:38.928Z,94.70
2023-01-12T09:07:05.766Z,97.60
2023-01-12T09:09:32.263Z,101.30
2023-01-12T09:11:58.701Z,104.20
2023-01-12T09:14:25.191Z,100.00
2023-01-12T09:16:52.115Z,96.80
2023-01-12T09:19:18.749Z,90.40
2023-01-12T09:21:45.625Z,75.70
2023-01-12T09:24:12.379Z,70.80
2023-01-12T09:26:43.920Z,62.60
2023-01-12T09:29:11.968Z,72.10
2023-01-12T09:31:40.449Z,60.70
2023-01-12T09:34:07.141Z,55.90
2023-01-12T09:36:36.258Z,58.80
2023-01-12T09:39:04.445Z,59.50
2023-01-12T09:41:32.632Z,58.90
2023-01-12T09:43:59.259Z,57.50
2023-01-12T09:46:39.230Z,49.60
2023-01-12T09:49:07.177Z,42.10
2023-01-12T09:51:40.568Z,40.00
2023-01-12T09:54:07.240Z,44.40
2023-01-12T09:57:06.033Z,43.90
2023-01-12T09:59:44.842Z,39.80
2023-01-12T10:02:13.314Z,55.70
2023-01-12T10:04:40.915Z,56.30
2023-01-12T10:07:16.271Z,56.00
2023-01-12T10:09:43.423Z,52.50
2023-01-12T10:12:26.277Z,50.80
2023-01-12T10:15:08.632Z,50.50
2023-01-12T10:17:50.545Z,44.00
2023-01-12T10:20:20.626Z,44.40
2023-01-12T10:23:01.657Z,47.00
2023-01-12T10:25:39.689Z,50.30
2023-01-12T10:28:27.322Z,41.80
2023-01-12T10:30:56.415Z,49.80
2023-01-12T10:33:31.987Z,43.00
2023-01-12T10:36:30.862Z,45.40
2023-01-12T10:39:00.171Z,35.90
2023-01-12T10:41:28.732Z,39.70
2023-01-12T10:43:57.969Z,38.60
2023-01-12T10:46:26.152Z,39.30
2023-01-12T10:48:56.444Z,40.10
2023-01-12T10:51:31.163Z,36.40
2023-01-12T10:53:57.521Z,38.10
2023-01-12T10:56:26.804Z,35.00
2023-01-12T10:59:03.302Z,27.40
2023-01-12T11:01:51.342Z,27.50
2023-01-12T11:04:23.653Z,35.60
2023-01-12T11:07:12.997Z,56.70
2023-01-12T11:09:41.075Z,32.00
2023-01-12T11:12:40.792Z,23.20
2023-01-12T11:15:10.037Z,21.00
2023-01-12T11:17:42.497Z,23.60
2023-01-12T11:20:30.227Z,24.10
2023-01-12T11:23:01.786Z,16.20
2023-01-12T11:25:33.594Z,16.60
2023-01-12T11:28:14.798Z,22.70
2023-01-12T11:31:07.228Z,29.10
2023-01-12T11:33:40.271Z,18.50
2023-01-12T11:36:11.308Z,20.60
2023-01-12T11:38:51.271Z,18.40
2023-01-12T11:41:35.420Z,15.90
2023-01-12T11:44:26.441Z,13.10
2023-01-12T11:47:03.607Z,13.90
2023-01-12T11:49:56.281Z,10.40
2023-01-12T11:52:26.299Z,7.80
2023-01-12T11:54:53.352Z,9.10
2023-01-12T11:58:11.098Z,9.30
2023-01-12T12:01:05.729Z,9.60
2023-01-12T12:03:38.276Z,11.30
2023-01-12T12:06:33.186Z,8.50
2023-01-12T12:09:18.261Z,10.40
2023-01-12T12:11:53.710Z,10.50
2023-01-12T12:14:46.969Z,10.80
2023-01-12T12:17:29.348Z,9.80
2023-01-12T12:20:11.191Z,12.70
2023-01-12T12:23:23.676Z,9.60
2023-01-12T12:26:15.598Z,10.20
2023-01-12T12:29:02.927Z,6.10
2023-01-12T12:31:57.571Z,9.40
2023-01-12T12:34:42.268Z,12.40
2023-01-12T12:37:33.985Z,8.00
2023-01-12T12:40:16.074Z,6.80
2023-01-12T12:42:49.216Z,8.90
2023-01-12T12:45:30.553Z,5.90
2023-01-12T12:48:20.556Z,7.50
2023-01-12T12:51:03.270Z,13.50
2023-01-12T12:53:57.671Z,13.40
2023-01-12T12:56:26.302Z,11.50
2023-01-12T12:58:55.898Z,10.80
2023-01-12T13:01:22.437Z,9.00
2023-01-12T13:04:06.884Z,8.50
2023-01-12T13:06:49.639Z,10.60
2023-01-12T13:09:16.070Z,8.90
2023-01-12T13:12:19.022Z,11.80
2023-01-12T13:15:16.624Z,9.50
2023-01-12T13:17:47.007Z,9.30
2023-01-12T13:20:24.580Z,7.60
2023-01-12T13:22:52.206Z,13.70
2023-01-12T13:25:18.547Z,9.20
2023-01-12T13:27:56.211Z,9.10
2023-01-12T13:30:28.486Z,12.40
2023-01-12T13:32:55.156Z,14.40
2023-01-12T13:35:33.743Z,7.70
2023-01-12T13:38:00.438Z,13.30
2023-01-12T13:40:29.405Z,12.30
2023-01-12T13:43:00.355Z,10.40
2023-01-12T13:45:26.975Z,9.50
2023-01-12T13:47:53.736Z,7.00
2023-01-12T13:50:24.329Z,13.00
2023-01-12T13:53:04.836Z,13.20
2023-01-12T13:55:33.454Z,8.90
2023-01-12T13:58:02.938Z,7.50
2023-01-12T14:00:30.944Z,8.80
2023-01-12T14:02:58.597Z,10.70
2023-01-12T14:05:37.104Z,10.00
2023-01-12T14:08:52.126Z,8.00
2023-01-12T14:12:01.212Z,5.90
2023-01-12T14:14:46.825Z,7.40
2023-01-12T14:17:22.973Z,11.50
2023-01-12T14:19:50.416Z,10.30
2023-01-12T14:22:20.533Z,12.00
2023-01-12T14:24:46.959Z,17.00
2023-01-12T14:27:31.645Z,10.10
2023-01-12T14:29:58.064Z,9.90
2023-01-12T14:32:25.440Z,11.60
2023-01-12T14:34:52.562Z,12.80
2023-01-12T14:37:34.587Z,13.90
2023-01-12T14:40:01.362Z,14.00
2023-01-12T14:42:28.486Z,17.50
2023-01-12T14:44:57.611Z,16.70
2023-01-12T14:47:32.191Z,24.90
2023-01-12T14:50:12.718Z,23.80
2023-01-12T14:52:41.637Z,19.90
2023-01-12T14:55:39.571Z,33.30
2023-01-12T14:58:14.500Z,29.30
2023-01-12T15:00:43.442Z,32.00
2023-01-12T15:03:26.274Z,28.60
2023-01-12T15:05:55.578Z,26.00
2023-01-12T15:08:25.460Z,24.80
2023-01-12T15:11:09.708Z,28.10
2023-01-12T15:13:39.666Z,25.00
2023-01-12T15:16:06.791Z,26.00
2023-01-12T15:18:33.320Z,27.20
2023-01-12T15:21:00.897Z,25.50
2023-01-12T15:23:36.938Z,24.20
2023-01-12T15:26:03.692Z,48.60
2023-01-12T15:28:30.139Z,33.60
2023-01-12T15:30:56.969Z,32.20
2023-01-12T15:33:23.919Z,33.10
2023-01-12T15:35:50.362Z,33.20
2023-01-12T15:38:19.069Z,32.00
2023-01-12T15:40:45.926Z,27.30
2023-01-12T15:43:17.388Z,30.70
2023-01-12T15:45:46.909Z,33.80
2023-01-12T15:48:14.014Z,41.10
2023-01-12T15:50:43.462Z,26.00
2023-01-12T15:53:20.109Z,27.40
2023-01-12T15:55:48.180Z,29.00
2023-01-12T15:58:14.908Z,26.00
2023-01-12T16:00:44.254Z,27.60
2023-01-12T16:03:32.183Z,79.50
2023-01-12T16:05:59.401Z,81.40
2023-01-12T16:08:25.866Z,90.50
2023-01-12T16:10:53.123Z,86.00
2023-01-12T16:13:19.608Z,80.30
2023-01-12T16:15:46.130Z,102.20
2023-01-12T16:18:12.565Z,137.10
2023-01-12T16:20:39.193Z,130.90
2023-01-12T16:23:05.727Z,149.40
2023-01-12T16:25:32.478Z,182.00
2023-01-12T16:27:59.006Z,169.90
2023-01-12T16:30:25.454Z,175.90
2023-01-12T16:32:51.877Z,181.40
2023-01-12T16:35:18.363Z,255.30
2023-01-12T16:37:44.958Z,201.90
2023-01-12T16:40:12.535Z,236.40
2023-01-12T16:42:38.998Z,221.30
2023-01-12T16:45:05.939Z,288.80
2023-01-12T16:47:32.464Z,263.80
2023-01-12T16:49:59.122Z,205.50
2023-01-12T16:52:25.632Z,247.50
2023-01-12T16:54:52.402Z,418.70
2023-01-12T16:57:19.221Z,361.80
2023-01-12T16:59:46.293Z,359.60
2023-01-12T17:02:17.411Z,250.90
2023-01-12T17:04:44.512Z,325.60
2023-01-12T17:07:11.951Z,485.40
2023-01-12T17:09:39.936Z,457.40
2023-01-12T17:12:07.386Z,372.60
2023-01-12T17:14:35.038Z,290.70
2023-01-12T17:17:07.839Z,284.30
2023-01-12T17:19:36.337Z,365.80
2023-01-12T17:22:04.399Z,255.70
2023-01-12T17:24:33.405Z,273.60
2023-01-12T17:27:00.483Z,260.90
2023-01-12T17:29:28.469Z,280.30
2023-01-12T17:31:56.744Z,278.70
2023-01-12T17:34:23.579Z,227.70
2023-01-12T17:36:50.088Z,273.10
2023-01-12T17:39:16.737Z,401.50
2023-01-12T17:41:43.288Z,369.20
2023-01-12T17:44:10.023Z,326.80
2023-01-12T17:46:36.757Z,289.60
2023-01-12T17:49:07.028Z,311.00
2023-01-12T17:51:34.456Z,317.40
2023-01-12T17:54:03.663Z,354.90
2023-01-12T17:56:31.322Z,381.90
2023-01-12T17:58:57.864Z,380.10
2023-01-12T18:01:27.318Z,340.80
2023-01-12T18:03:54.119Z,451.60
2023-01-12T18:06:26.552Z,404.70
2023-01-12T18:08:55.080Z,381.40
2023-01-12T18:11:21.959Z,395.30
2023-01-12T18:13:48.462Z,394.40
2023-01-12T18:16:16.019Z,350.10
2023-01-12T18:18:43.183Z,334.40
2023-01-12T18:21:12.793Z,355.20
2023-01-12T18:23:39.762Z,335.50
2023-01-12T18:26:18.447Z,309.90
2023-01-12T18:28:45.742Z,317.10
2023-01-12T18:31:15.679Z,249.80
2023-01-12T18:33:43.094Z,269.20
2023-01-12T18:36:20.199Z,357.80
2023-01-12T18:38:46.952Z,399.30
2023-01-12T18:41:13.552Z,436.10
2023-01-12T18:43:41.846Z,382.90
2023-01-12T18:46:08.626Z,328.70
2023-01-12T18:48:35.160Z,300.60
2023-01-12T18:51:01.684Z,353.20
2023-01-12T18:53:28.771Z,340.60
2023-01-12T18:55:57.088Z,437.40
2023-01-12T18:58:30.026Z,398.00
2023-01-12T19:00:58.811Z,406.40
2023-01-12T19:03:25.369Z,383.40
2023-01-12T19:05:51.871Z,400.80
2023-01-12T19:08:18.649Z,387.20
2023-01-12T19:10:45.064Z,374.60
2023-01-12T19:13:11.502Z,355.50
2023-01-12T19:15:38.243Z,358.30
2023-01-12T19:18:05.005Z,384.00
2023-01-12T19:20:31.843Z,379.10
2023-01-12T19:22:58.502Z,366.20
2023-01-12T19:25:25.031Z,360.60
2023-01-12T19:27:51.942Z,359.50
2023-01-12T19:30:19.046Z,342.50
2023-01-12T19:32:45.480Z,274.10
2023-01-12T19:35:12.169Z,295.10
2023-01-12T19:37:39.957Z,258.80
2023-01-12T19:40:07.801Z,270.10
2023-01-12T19:42:34.613Z,287.90
2023-01-12T19:45:01.154Z,290.60
2023-01-12T19:47:27.814Z,269.40
2023-01-12T19:49:54.752Z,261.90
2023-01-12T19:52:21.290Z,243.20
2023-01-12T19:54:48.012Z,243.30
2023-01-12T19:57:14.601Z,245.80
2023-01-12T19:59:41.141Z,236.90
2023-01-12T20:02:10.372Z,232.00
2023-01-12T20:04:37.065Z,249.80
2023-01-12T20:07:03.545Z,242.20
2023-01-12T20:09:30.255Z,300.10
2023-01-12T20:11:56.699Z,316.20
2023-01-12T20:14:23.324Z,253.90
2023-01-12T20:16:49.831Z,251.60
2023-01-12T20:19:17.057Z,271.90
2023-01-12T20:21:43.662Z,293.80
2023-01-12T20:24:10.304Z,352.50
2023-01-12T20:26:37.049Z,356.40
2023-01-12T20:29:03.762Z,367.60
2023-01-12T20:31:30.246Z,337.90
2023-01-12T20:33:56.876Z,324.50
2023-01-12T20:36:23.304Z,326.20
2023-01-12T20:38:50.068Z,361.40
2023-01-12T20:41:17.013Z,442.90
2023-01-12T20:43:44.323Z,397.40
2023-01-12T20:46:13.480Z,399.50
2023-01-12T20:48:44.720Z,487.10
2023-01-12T20:51:14.536Z,415.50
2023-01-12T20:53:41.320Z,434.30
2023-01-12T20:56:08.638Z,401.20
2023-01-12T20:58:35.828Z,356.80
2023-01-12T21:01:07.669Z,375.20
2023-01-12T21:03:34.555Z,333.30
2023-01-12T21:06:01.660Z,374.10
2023-01-12T21:08:28.432Z,394.10
2023-01-12T21:10:54.971Z,421.30
2023-01-12T21:13:21.702Z,364.60
2023-01-12T21:15:48.273Z,329.30
2023-01-12T21:18:15.152Z,319.10
2023-01-12T21:20:43.040Z,318.40
2023-01-12T21:23:10.205Z,303.80
2023-01-12T21:25:43.508Z,364.70
2023-01-12T21:28:10.483Z,366.10
2023-01-12T21:30:38.363Z,351.00
2023-01-12T21:33:05.324Z,339.30
2023-01-12T21:35:32.556Z,319.40
2023-01-12T21:37:59.505Z,329.40
2023-01-12T21:40:26.141Z,313.70
2023-01-12T21:42:52.779Z,255.80
2023-01-12T21:45:19.198Z,246.50
2023-01-12T21:47:45.882Z,207.20
2023-01-12T21:50:12.408Z,272.30
2023-01-12T21:52:38.952Z,370.60
2023-01-12T21:55:05.894Z,215.10
2023-01-12T21:57:32.318Z,213.10
2023-01-12T21:59:58.784Z,242.40
2023-01-12T22:02:25.288Z,243.40
2023-01-12T22:04:51.729Z,432.60
2023-01-12T22:07:18.293Z,364.90
2023-01-12T22:09:44.806Z,218.20
2023-01-12T22:12:11.288Z,191.30
2023-01-12T22:14:37.716Z,265.70
2023-01-12T22:17:04.691Z,266.40
2023-01-12T22:19:31.167Z,204.60
2023-01-12T22:21:58.059Z,243.10
2023-01-12T22:24:24.780Z,273.40
2023-01-12T22:26:51.230Z,270.30
2023-01-12T22:29:17.886Z,272.10
2023-01-12T22:31:44.358Z,232.20
2023-01-12T22:34:10.870Z,243.60
2023-01-12T22:36:37.397Z,245.80
2023-01-12T22:39:04.036Z,373.50
2023-01-12T22:41:30.585Z,292.50
2023-01-12T22:43:57.115Z,273.60
2023-01-12T22:46:26.033Z,265.40
2023-01-12T22:48:54.705Z,302.30
2023-01-12T22:51:23.275Z,265.70
2023-01-12T22:53:50.033Z,255.10
2023-01-12T22:56:17.098Z,503.30
2023-01-12T22:58:52.049Z,356.00
2023-01-12T23:01:20.642Z,320.40
2023-01-12T23:03:47.572Z,336.40
2023-01-12T23:06:17.183Z,267.40
2023-01-12T23:08:44.959Z,222.40
2023-01-12T23:11:20.590Z,224.70
2023-01-12T23:13:47.670Z,196.40
2023-01-12T23:16:16.753Z,179.20
2023-01-12T23:18:45.167Z,159.20
2023-01-12T23:21:15.599Z,160.00
2023-01-12T23:23:50.743Z,111.50
2023-01-12T23:26:20.916Z,150.70
2023-01-12T23:28:50.781Z,143.00
2023-01-12T23:31:20.824Z,147.90
2023-01-12T23:33:48.155Z,158.30
2023-01-12T23:36:20.636Z,159.10
2023-01-12T23:38:47.492Z,150.90
2023-01-12T23:41:16.551Z,148.50
2023-01-12T23:43:43.129Z,165.00
2023-01-12T23:46:10.058Z,154.30
2023-01-12T23:48:36.762Z,150.30
2023-01-12T23:51:04.599Z,150.10
2023-01-12T23:53:31.857Z,145.40
2023-01-12T23:56:04.948Z,142.10
2023-01-12T23:58:31.589Z,143.00
